Aviation Digital Data Service (ADDS)

Output produced by METARs form (1751 UTC 28 March 2017)
found at http://aviationweather.gov/adds/metars/
 
KRDU 281735Z 2818/2918 24011G19KT P6SM BKN025 
     FM282200 VRB05KT P6SM SCT050 BKN250